Aviation Digital Data Service (ADDS)

Output produced by TAFs form (0933 UTC 25 November 2017)
found at http://www.aviationweather.gov/adds/tafs/
 
METAR text: RJOR 250900Z 15005KT 9999 FEW045 BKN/// 07/M00 Q1026
Conditions at: RJOR (TOTTORI AIRPORT , JP) observed 0900 UTC 25 November 2017
Temperature: 7.0°C (45°F)
Dewpoint: 0.0°C (32°F) [RH = 61%]
Pressure (altimeter): 30.30 inches Hg (1026.0 mb)
Winds: from the SSE (150 degrees) at 6 MPH (5 knots; 2.6 m/s)
Visibility: 6 or more miles (10+ km)
Ceiling: at least 12,000 feet AGL
Clouds: few clouds at 4500 feet AGL
Weather: no significant weather observed at this time